Time;durP1;ratioP1;P1;durP2;ratioP2;P2;SDS_P1;SDS_P2;PMS_P1;PMS_P2;Temp;Humidity;BMP_temperature;BMP_pressure;BME280_temperature;BME280_humidity;BME280_pressure;Samples;Min_cycle;Max_cycle;Signal;HPM_P1;HPM_P2
2022/11/24 00:00:43;;;;;;;6.63;3.28;;;5.20;99.90;;;;;;4987315;28;20034;-40
2022/11/24 00:03:09;;;;;;;5.60;3.13;;;5.20;99.90;;;;;;4987791;28;20030;-40
2022/11/24 00:05:37;;;;;;;8.30;3.53;;;5.10;99.90;;;;;;4988131;28;20031;-40
2022/11/24 00:08:03;;;;;;;6.82;3.22;;;5.10;99.90;;;;;;4987890;28;20113;-40
2022/11/24 00:10:29;;;;;;;5.85;2.58;;;5.10;99.90;;;;;;4987530;28;20353;-40
2022/11/24 00:12:54;;;;;;;6.45;3.13;;;5.10;99.90;;;;;;4987268;28;20455;-39
2022/11/24 00:15:20;;;;;;;5.68;3.10;;;5.10;99.90;;;;;;4986722;28;20113;-40
2022/11/24 00:17:45;;;;;;;9.02;3.22;;;5.10;99.90;;;;;;4987750;28;20050;-39
2022/11/24 00:20:11;;;;;;;7.68;3.85;;;5.00;99.90;;;;;;4987219;28;20026;-40
2022/11/24 00:22:36;;;;;;;10.82;3.13;;;5.00;99.90;;;;;;4987260;28;20041;-40
2022/11/24 00:25:02;;;;;;;9.07;3.45;;;5.00;99.90;;;;;;4986342;28;20246;-40
2022/11/24 00:27:27;;;;;;;10.10;4.10;;;5.00;99.90;;;;;;4987624;28;20454;-40
2022/11/24 00:29:53;;;;;;;10.50;4.03;;;5.00;99.90;;;;;;4985798;28;20041;-40
2022/11/24 00:32:18;;;;;;;7.40;3.13;;;5.00;99.90;;;;;;4986221;28;20541;-40
2022/11/24 00:34:44;;;;;;;11.57;3.92;;;5.00;99.90;;;;;;4987224;28;20026;-40
2022/11/24 00:37:09;;;;;;;10.07;3.55;;;5.00;99.90;;;;;;4987132;28;20053;-40
2022/11/24 00:39:35;;;;;;;9.27;3.47;;;5.00;99.90;;;;;;4985383;28;20037;-40
2022/11/24 00:42:01;;;;;;;7.53;3.60;;;5.00;99.90;;;;;;4987413;28;20560;-40
2022/11/24 00:44:27;;;;;;;15.10;3.53;;;5.10;99.90;;;;;;4987361;28;20057;-40
2022/11/24 00:46:52;;;;;;;12.75;3.85;;;5.10;99.90;;;;;;4986057;28;20121;-40
2022/11/24 00:49:19;;;;;;;9.48;3.38;;;5.20;99.90;;;;;;4985912;28;20030;-41
2022/11/24 00:51:45;;;;;;;12.07;4.28;;;5.30;99.90;;;;;;4987101;28;20023;-40
2022/11/24 00:54:10;;;;;;;7.38;3.47;;;5.30;99.90;;;;;;4987006;28;20039;-40
2022/11/24 00:56:36;;;;;;;11.93;3.63;;;5.40;99.90;;;;;;4987050;28;20062;-39
2022/11/24 00:59:02;;;;;;;10.50;3.40;;;5.50;99.90;;;;;;4987007;28;20476;-40
2022/11/24 01:01:31;;;;;;;10.40;3.50;;;5.50;99.90;;;;;;4986985;28;20022;-40
2022/11/24 01:04:00;;;;;;;8.27;3.70;;;5.50;99.90;;;;;;5054459;28;20110;-40
2022/11/24 01:06:26;;;;;;;6.35;3.40;;;5.60;99.90;;;;;;5109416;28;20023;-42
2022/11/24 01:08:52;;;;;;;8.55;3.85;;;5.60;99.90;;;;;;5109393;28;20047;-41
2022/11/24 01:11:22;;;;;;;8.88;3.47;;;5.60;99.90;;;;;;5107585;28;20059;-40
2022/11/24 01:13:51;;;;;;;5.40;3.10;;;5.70;99.90;;;;;;5109033;28;20515;-41
2022/11/24 01:16:23;;;;;;;7.38;3.65;;;5.70;99.90;;;;;;5109434;28;20051;-41
2022/11/24 01:18:49;;;;;;;10.02;3.28;;;5.70;99.90;;;;;;5109605;28;20026;-41
2022/11/24 01:21:16;;;;;;;9.45;4.40;;;5.70;99.90;;;;;;5108926;28;20028;-41
2022/11/24 01:23:42;;;;;;;9.63;3.35;;;5.70;99.90;;;;;;5109201;28;20039;-40
2022/11/24 01:26:09;;;;;;;9.45;3.78;;;5.70;99.90;;;;;;5107972;28;20023;-40
2022/11/24 01:28:35;;;;;;;7.93;4.18;;;5.70;99.90;;;;;;5109156;28;20156;-40
2022/11/24 01:31:04;;;;;;;13.20;5.45;;;5.70;99.90;;;;;;5108653;28;20540;-41
2022/11/24 01:33:30;;;;;;;8.98;4.10;;;5.60;99.90;;;;;;5107781;28;20136;-41
2022/11/24 01:35:57;;;;;;;11.65;4.85;;;5.60;99.90;;;;;;5109107;28;20528;-41
2022/11/24 01:38:24;;;;;;;13.88;4.35;;;5.60;99.90;;;;;;5109223;28;20024;-41
2022/11/24 01:40:58;;;;;;;13.07;5.03;;;5.60;99.90;;;;;;5107167;28;20088;-41
2022/11/24 01:43:24;;;;;;;8.85;4.28;;;5.60;99.90;;;;;;5109120;28;20563;-41
2022/11/24 01:45:49;;;;;;;11.20;4.07;;;5.50;99.90;;;;;;5107545;28;20075;-41
2022/11/24 01:48:33;;;;;;;12.18;4.30;;;5.50;99.90;;;;;;5107817;28;20023;-41
2022/11/24 01:51:10;;;;;;;13.60;4.60;;;5.60;99.90;;;;;;5108820;28;20032;-42
2022/11/24 01:53:38;;;;;;;11.93;4.55;;;5.60;99.90;;;;;;5107632;28;20111;-40
2022/11/24 01:56:05;;;;;;;12.25;4.85;;;5.60;99.90;;;;;;5108878;28;20083;-40
2022/11/24 01:58:32;;;;;;;8.02;4.32;;;5.60;99.90;;;;;;5107293;28;20556;-40
2022/11/24 02:00:58;;;;;;;9.30;4.07;;;5.60;99.90;;;;;;5108615;28;20019;-40
2022/11/24 02:03:29;;;;;;;8.50;4.22;;;5.60;99.90;;;;;;5107243;28;20380;-39
2022/11/24 02:05:54;;;;;;;9.85;4.38;;;5.60;99.90;;;;;;5108773;28;20028;-40
2022/11/24 02:08:28;;;;;;;14.60;4.60;;;5.60;99.90;;;;;;5108723;28;20031;-40
2022/11/24 02:10:53;;;;;;;11.20;4.80;;;5.60;99.90;;;;;;5106783;28;20416;-40
2022/11/24 02:13:21;;;;;;;9.27;4.30;;;5.60;99.90;;;;;;5107382;28;20034;-40
2022/11/24 02:15:47;;;;;;;12.15;4.93;;;5.60;99.90;;;;;;5107316;28;20473;-40
2022/11/24 02:18:13;;;;;;;9.80;5.10;;;5.60;99.90;;;;;;5108741;28;20039;-40
2022/11/24 02:20:38;;;;;;;11.57;4.65;;;5.60;99.90;;;;;;5108153;28;20399;-40
2022/11/24 02:23:16;;;;;;;13.88;5.18;;;5.60;99.90;;;;;;5107322;28;20092;-39
2022/11/24 02:25:55;;;;;;;13.43;5.30;;;5.70;99.90;;;;;;5108478;28;20452;-41
2022/11/24 02:28:24;;;;;;;12.85;4.65;;;5.70;99.90;;;;;;5108932;28;20103;-40
2022/11/24 02:30:50;;;;;;;10.70;5.13;;;5.70;99.90;;;;;;5108029;28;20032;-41
2022/11/24 02:33:16;;;;;;;9.98;4.70;;;5.70;99.90;;;;;;5107355;28;20023;-39
2022/11/24 02:35:42;;;;;;;9.45;5.88;;;5.80;99.90;;;;;;5108705;28;20026;-39
2022/11/24 02:38:12;;;;;;;13.45;5.15;;;5.70;99.90;;;;;;5110796;28;20023;-40
2022/11/24 02:40:40;;;;;;;10.10;4.55;;;5.80;99.90;;;;;;5013306;28;20060;-40
2022/11/24 02:43:14;;;;;;;10.35;4.63;;;5.80;99.90;;;;;;4998470;28;20022;-41
2022/11/24 02:45:40;;;;;;;8.77;5.45;;;5.80;99.90;;;;;;4997722;28;20018;-39
2022/11/24 02:48:05;;;;;;;9.70;4.88;;;5.80;99.90;;;;;;4998973;28;20076;-40
2022/11/24 02:50:31;;;;;;;12.27;4.65;;;5.80;99.90;;;;;;4997209;28;20113;-40
2022/11/24 02:52:56;;;;;;;9.45;4.60;;;5.80;99.90;;;;;;4997615;28;20044;-40
2022/11/24 02:55:22;;;;;;;15.35;4.90;;;5.80;99.90;;;;;;4997060;28;20060;-40
2022/11/24 02:57:48;;;;;;;10.93;4.18;;;5.80;99.90;;;;;;4997476;28;20513;-40
2022/11/24 03:00:14;;;;;;;9.38;5.20;;;5.80;99.90;;;;;;4998295;28;20027;-40
2022/11/24 03:02:40;;;;;;;10.40;4.95;;;5.80;99.90;;;;;;4996867;28;20061;-39
2022/11/24 03:05:06;;;;;;;14.70;4.75;;;5.80;99.90;;;;;;4997429;28;20026;-39
2022/11/24 03:07:32;;;;;;;12.05;4.75;;;5.80;99.90;;;;;;4997034;28;20431;-39
2022/11/24 03:09:57;;;;;;;12.23;5.07;;;5.80;99.90;;;;;;4997533;28;20043;-40
2022/11/24 03:12:22;;;;;;;8.70;3.95;;;5.90;99.90;;;;;;4997024;28;20026;-39
2022/11/24 03:14:48;;;;;;;9.25;4.75;;;5.90;99.90;;;;;;4997273;28;20100;-39
2022/11/24 03:17:14;;;;;;;18.08;5.32;;;5.90;99.90;;;;;;4998639;28;20109;-39
2022/11/24 03:19:40;;;;;;;10.25;4.82;;;6.00;99.90;;;;;;4996205;28;20046;-41
2022/11/24 03:22:05;;;;;;;10.90;5.32;;;5.90;99.90;;;;;;4997467;28;20276;-40
2022/11/24 03:24:31;;;;;;;14.25;4.65;;;5.90;99.90;;;;;;4998213;28;20383;-41
2022/11/24 03:26:57;;;;;;;8.15;4.65;;;5.90;99.90;;;;;;4996046;28;20026;-41
2022/11/24 03:29:22;;;;;;;10.48;4.35;;;5.90;99.90;;;;;;4998497;28;20029;-40
2022/11/24 03:31:48;;;;;;;12.02;4.88;;;6.00;99.90;;;;;;4997890;28;20089;-40
2022/11/24 03:34:13;;;;;;;12.13;4.95;;;6.00;99.90;;;;;;4997120;28;20030;-41
2022/11/24 03:36:39;;;;;;;15.50;5.47;;;6.00;99.90;;;;;;4997140;28;20109;-40
2022/11/24 03:39:05;;;;;;;12.40;6.57;;;6.00;99.90;;;;;;4993636;28;20484;-40
2022/11/24 03:41:30;;;;;;;10.60;5.18;;;5.90;99.90;;;;;;4995979;28;20022;-40
2022/11/24 03:43:55;;;;;;;10.55;4.85;;;5.90;99.90;;;;;;4998024;28;20028;-39
2022/11/24 03:46:21;;;;;;;10.00;4.35;;;6.00;99.90;;;;;;4994907;28;20026;-44
2022/11/24 03:48:46;;;;;;;11.82;4.45;;;6.00;99.90;;;;;;4998162;28;20479;-44
2022/11/24 03:51:12;;;;;;;11.65;5.60;;;6.00;99.90;;;;;;4997007;28;20109;-44
2022/11/24 03:53:38;;;;;;;16.35;5.50;;;6.00;99.90;;;;;;4996219;28;20030;-44
2022/11/24 03:56:03;;;;;;;13.40;5.00;;;6.10;99.90;;;;;;4997070;28;20475;-44
2022/11/24 03:58:29;;;;;;;12.90;4.57;;;6.10;99.90;;;;;;4995582;28;20027;-43
2022/11/24 04:00:55;;;;;;;10.90;4.88;;;6.20;99.90;;;;;;4997020;28;20037;-45
2022/11/24 04:03:21;;;;;;;10.50;4.78;;;6.20;99.90;;;;;;4997293;28;20010;-45
2022/11/24 04:05:47;;;;;;;8.98;4.28;;;6.20;99.90;;;;;;4995935;28;20073;-47
2022/11/24 04:08:12;;;;;;;14.90;4.60;;;6.30;99.90;;;;;;4999444;28;20061;-44
2022/11/24 04:10:38;;;;;;;17.80;5.00;;;6.30;99.90;;;;;;5109685;28;20080;-45
2022/11/24 04:13:14;;;;;;;7.40;3.60;;;6.30;99.90;;;;;;5109957;28;20032;-46
2022/11/24 04:15:41;;;;;;;9.95;3.67;;;6.30;99.90;;;;;;5108807;28;20023;-46
2022/11/24 04:18:07;;;;;;;13.15;4.93;;;6.40;99.90;;;;;;5108982;28;20047;-44
2022/11/24 04:20:33;;;;;;;11.90;4.32;;;6.40;99.90;;;;;;5110094;28;20020;-48
2022/11/24 04:22:59;;;;;;;17.48;4.57;;;6.40;99.90;;;;;;5110485;28;20023;-46
2022/11/24 04:25:25;;;;;;;12.13;5.53;;;6.40;99.90;;;;;;5110222;28;20464;-47
2022/11/24 04:27:52;;;;;;;13.48;4.30;;;6.50;99.90;;;;;;5025389;28;20411;-45
2022/11/24 04:30:18;;;;;;;16.33;4.03;;;6.50;99.90;;;;;;4996098;28;20041;-45
2022/11/24 04:32:44;;;;;;;16.30;4.28;;;6.50;99.90;;;;;;4995426;28;20018;-45
2022/11/24 04:35:10;;;;;;;12.20;4.10;;;6.50;99.90;;;;;;4980547;28;20487;-46
2022/11/24 04:37:36;;;;;;;14.65;4.22;;;6.50;99.90;;;;;;4987327;28;20415;-45
2022/11/24 04:40:02;;;;;;;19.50;5.28;;;6.50;99.90;;;;;;4986749;28;20045;-45
2022/11/24 04:42:28;;;;;;;10.13;4.47;;;6.60;99.90;;;;;;4988089;28;20018;-45
2022/11/24 04:44:57;;;;;;;13.40;4.38;;;6.60;99.90;;;;;;5001037;28;20034;-45
2022/11/24 04:47:24;;;;;;;16.02;4.38;;;6.60;99.90;;;;;;5000545;28;20387;-45
2022/11/24 04:49:50;;;;;;;15.85;5.03;;;6.60;99.90;;;;;;4996185;28;20096;-45
2022/11/24 04:52:18;;;;;;;15.55;4.93;;;6.70;99.90;;;;;;4995675;28;20029;-45
2022/11/24 04:54:44;;;;;;;14.10;5.05;;;6.70;99.90;;;;;;4996312;28;20022;-45
2022/11/24 04:57:19;;;;;;;19.00;4.35;;;6.70;99.90;;;;;;4995796;28;20030;-45
2022/11/24 04:59:44;;;;;;;10.15;3.80;;;6.80;99.90;;;;;;4995357;28;20271;-44
2022/11/24 05:02:11;;;;;;;17.58;4.72;;;6.70;99.90;;;;;;4995829;28;20440;-44
2022/11/24 05:04:36;;;;;;;18.88;4.90;;;6.80;99.90;;;;;;4997407;28;20437;-44
2022/11/24 05:07:03;;;;;;;14.93;4.38;;;6.80;99.90;;;;;;4994850;28;20039;-44
2022/11/24 05:09:29;;;;;;;10.88;4.70;;;6.80;99.90;;;;;;4994077;28;20451;-44
2022/11/24 05:11:55;;;;;;;16.15;4.18;;;6.80;99.90;;;;;;4997449;28;20288;-43
2022/11/24 05:14:20;;;;;;;13.32;3.65;;;6.80;99.90;;;;;;4996634;28;20712;-44
2022/11/24 05:16:46;;;;;;;14.27;4.72;;;6.80;99.90;;;;;;4994382;28;20018;-44
2022/11/24 05:19:12;;;;;;;11.02;4.72;;;6.80;99.90;;;;;;4996324;28;20083;-44
2022/11/24 05:21:37;;;;;;;18.17;4.15;;;6.80;99.90;;;;;;4996878;28;20029;-44
2022/11/24 05:24:03;;;;;;;14.38;4.20;;;6.80;99.90;;;;;;4995013;28;20034;-44
2022/11/24 05:26:29;;;;;;;16.70;4.57;;;6.90;99.90;;;;;;4996570;28;20036;-44
2022/11/24 05:28:55;;;;;;;14.85;4.22;;;6.90;99.90;;;;;;4996494;28;20479;-44
2022/11/24 05:31:20;;;;;;;17.45;4.70;;;6.90;99.90;;;;;;4982527;28;20041;-45
2022/11/24 05:33:46;;;;;;;17.15;4.50;;;6.90;99.90;;;;;;4996943;28;20044;-44
2022/11/24 05:36:51;;;;;;;15.43;4.38;;;6.90;99.90;;;;;;4994707;28;20222;-44
2022/11/24 05:38:57;;;;;;;13.90;4.50;;;6.90;99.90;;;;;;4996560;28;20018;-44
2022/11/24 05:41:23;;;;;;;24.45;5.28;;;7.00;99.90;;;;;;4994470;28;20030;-44
2022/11/24 05:43:49;;;;;;;14.60;4.20;;;6.90;99.90;;;;;;4995239;28;20022;-44
2022/11/24 05:46:14;;;;;;;14.43;4.57;;;6.90;99.90;;;;;;4996303;28;20026;-45
2022/11/24 05:48:40;;;;;;;14.18;5.10;;;6.90;99.90;;;;;;5007458;28;20083;-45
2022/11/24 05:51:06;;;;;;;13.68;4.57;;;6.90;99.90;;;;;;4996381;28;20048;-45
2022/11/24 05:53:31;;;;;;;24.00;6.10;;;6.90;99.90;;;;;;4995600;28;20065;-45
2022/11/24 05:55:57;;;;;;;18.75;4.78;;;7.00;99.90;;;;;;4994125;28;20419;-45
2022/11/24 05:58:23;;;;;;;13.35;4.50;;;7.00;99.90;;;;;;5006713;28;20479;-46
2022/11/24 06:00:49;;;;;;;10.88;4.22;;;7.00;99.90;;;;;;4995352;28;20496;-46
2022/11/24 06:03:14;;;;;;;13.95;5.13;;;7.00;99.90;;;;;;4994644;28;20026;-47
2022/11/24 06:05:45;;;;;;;16.05;5.20;;;7.10;99.90;;;;;;4994920;28;20026;-46
2022/11/24 06:08:11;;;;;;;20.25;5.13;;;7.10;99.90;;;;;;4995456;28;20022;-46
2022/11/24 06:10:37;;;;;;;16.15;5.50;;;7.10;99.90;;;;;;4994454;28;20033;-44
2022/11/24 06:13:06;;;;;;;17.05;6.57;;;7.10;99.90;;;;;;4996441;28;20371;-46
2022/11/24 06:15:33;;;;;;;15.20;4.40;;;7.20;99.90;;;;;;4998917;28;20018;-46
2022/11/24 06:17:58;;;;;;;19.23;5.25;;;7.20;99.90;;;;;;4999511;28;20023;-45
2022/11/24 06:20:24;;;;;;;14.15;5.03;;;7.20;99.90;;;;;;4997086;28;20010;-44
2022/11/24 06:22:49;;;;;;;14.50;5.13;;;7.20;99.90;;;;;;4999808;28;20032;-44
2022/11/24 06:25:15;;;;;;;15.00;4.95;;;7.20;99.90;;;;;;5000104;28;20018;-44
2022/11/24 06:27:41;;;;;;;13.32;4.07;;;7.20;99.90;;;;;;4993861;28;20046;-44
2022/11/24 06:30:07;;;;;;;25.38;4.80;;;7.20;99.90;;;;;;4990099;28;20022;-45
2022/11/24 06:32:32;;;;;;;17.63;4.78;;;7.30;99.90;;;;;;4990630;28;20565;-40
2022/11/24 06:34:58;;;;;;;13.27;5.43;;;7.20;99.90;;;;;;4990289;28;20054;-41
2022/11/24 06:37:23;;;;;;;15.85;4.18;;;7.20;99.90;;;;;;5003367;28;20479;-41
2022/11/24 06:39:49;;;;;;;14.93;4.88;;;7.20;99.90;;;;;;4996251;28;20026;-40
2022/11/24 06:42:17;;;;;;;14.40;4.80;;;7.20;99.90;;;;;;4990612;28;20141;-40
2022/11/24 06:44:46;;;;;;;25.50;6.88;;;7.30;99.90;;;;;;4990434;28;20042;-40
2022/11/24 06:47:13;;;;;;;18.20;4.80;;;7.30;99.90;;;;;;4989967;28;20105;-41
2022/11/24 06:49:39;;;;;;;16.77;5.13;;;7.20;99.90;;;;;;4989227;28;20418;-41
2022/11/24 06:52:04;;;;;;;12.68;3.85;;;7.20;99.90;;;;;;4988549;28;20368;-46
2022/11/24 06:54:30;;;;;;;15.63;5.35;;;7.20;99.90;;;;;;4990204;28;20037;-44
2022/11/24 06:56:56;;;;;;;16.63;4.38;;;7.20;99.90;;;;;;4990293;28;20027;-44
2022/11/24 06:59:22;;;;;;;17.23;4.18;;;7.20;99.90;;;;;;4989856;28;20022;-44
2022/11/24 07:01:48;;;;;;;12.80;4.72;;;7.20;99.90;;;;;;4988785;28;20023;-44
2022/11/24 07:04:14;;;;;;;10.85;3.92;;;7.30;99.90;;;;;;4988520;28;20494;-45
2022/11/24 07:06:40;;;;;;;18.27;5.40;;;7.20;99.90;;;;;;4990091;28;20038;-45
2022/11/24 07:09:10;;;;;;;18.85;4.57;;;7.30;99.90;;;;;;4990026;28;20025;-44
2022/11/24 07:11:36;;;;;;;13.38;5.00;;;7.30;99.90;;;;;;4990145;28;20027;-44
2022/11/24 07:14:02;;;;;;;13.70;4.63;;;7.30;99.90;;;;;;4989789;28;20251;-45
2022/11/24 07:16:27;;;;;;;15.10;4.80;;;7.30;99.90;;;;;;4989859;28;20092;-43
2022/11/24 07:18:54;;;;;;;15.27;4.45;;;7.30;99.90;;;;;;4988409;28;20022;-45
2022/11/24 07:21:21;;;;;;;17.70;5.68;;;7.30;99.90;;;;;;4989509;28;20028;-45
2022/11/24 07:23:51;;;;;;;15.52;4.57;;;7.40;99.90;;;;;;4988694;28;20029;-45
2022/11/24 07:26:18;;;;;;;20.35;4.75;;;7.40;99.90;;;;;;4988529;28;20253;-44
2022/11/24 07:28:44;;;;;;;14.73;4.38;;;7.50;99.90;;;;;;4987124;28;20030;-44
2022/11/24 07:31:13;;;;;;;20.00;4.85;;;7.50;99.90;;;;;;4986619;28;20103;-44
2022/11/24 07:33:39;;;;;;;15.98;4.55;;;7.50;99.90;;;;;;4988061;28;20034;-44
2022/11/24 07:36:06;;;;;;;15.88;4.13;;;7.60;99.90;;;;;;4971080;28;20034;-44
2022/11/24 07:38:33;;;;;;;21.20;4.97;;;7.60;99.90;;;;;;4998641;28;20018;-44
2022/11/24 07:41:07;;;;;;;17.73;4.80;;;7.60;99.90;;;;;;5002022;28;20033;-44
2022/11/24 07:43:34;;;;;;;15.60;4.22;;;7.60;99.90;;;;;;5007837;28;20086;-46
2022/11/24 07:46:00;;;;;;;18.20;4.75;;;7.60;99.90;;;;;;5008365;28;20025;-44
2022/11/24 07:48:26;;;;;;;15.00;4.20;;;7.60;99.90;;;;;;5008985;28;20497;-44
2022/11/24 07:50:52;;;;;;;20.67;4.60;;;7.60;99.90;;;;;;5008399;28;20109;-44
2022/11/24 07:53:18;;;;;;;14.02;4.65;;;7.60;99.90;;;;;;5007389;28;20026;-47
2022/11/24 07:55:51;;;;;;;13.50;5.13;;;7.70;99.90;;;;;;5008621;28;20371;-44
2022/11/24 07:58:16;;;;;;;14.95;4.03;;;7.70;99.90;;;;;;5008609;28;20019;-44
2022/11/24 08:00:42;;;;;;;12.10;4.40;;;7.70;99.90;;;;;;5007826;28;20131;-45
2022/11/24 08:03:08;;;;;;;15.20;4.50;;;7.70;99.90;;;;;;5008515;28;20018;-44
2022/11/24 08:05:35;;;;;;;14.38;4.55;;;7.80;99.90;;;;;;5008817;28;20653;-44
2022/11/24 08:08:01;;;;;;;14.05;4.15;;;7.90;99.90;;;;;;5008376;28;20040;-45
2022/11/24 08:10:26;;;;;;;13.40;5.15;;;7.90;99.90;;;;;;5007105;28;20116;-47
2022/11/24 08:12:52;;;;;;;14.45;4.60;;;7.90;99.90;;;;;;5006593;28;20045;-44
2022/11/24 08:15:17;;;;;;;17.98;5.45;;;7.90;99.90;;;;;;5007017;28;20037;-44
2022/11/24 08:17:43;;;;;;;18.50;4.38;;;7.90;99.90;;;;;;5008464;28;20182;-44
2022/11/24 08:20:09;;;;;;;15.48;4.28;;;8.00;99.90;;;;;;5007975;28;20018;-45
2022/11/24 08:22:35;;;;;;;18.73;4.28;;;8.10;99.90;;;;;;5006236;28;20355;-44
2022/11/24 08:25:00;;;;;;;22.35;4.43;;;8.10;99.90;;;;;;5006316;28;20513;-44
2022/11/24 08:27:26;;;;;;;21.98;4.65;;;8.10;99.90;;;;;;5007512;28;20026;-44
2022/11/24 08:29:52;;;;;;;21.95;4.70;;;8.10;99.90;;;;;;5005180;28;20387;-44
2022/11/24 08:32:17;;;;;;;14.25;4.78;;;8.10;99.90;;;;;;5006925;28;20029;-44
2022/11/24 08:34:43;;;;;;;17.42;4.13;;;8.20;99.90;;;;;;5005737;28;20024;-44
2022/11/24 08:37:12;;;;;;;17.67;4.22;;;8.30;99.90;;;;;;5005585;28;20018;-45
2022/11/24 08:39:37;;;;;;;13.90;3.85;;;8.40;99.90;;;;;;5004763;28;20037;-45
2022/11/24 08:42:04;;;;;;;16.08;4.15;;;8.40;99.90;;;;;;5002855;28;20053;-47
2022/11/24 08:44:29;;;;;;;25.20;4.43;;;8.50;99.90;;;;;;5004943;28;20022;-44
2022/11/24 08:46:55;;;;;;;14.45;3.92;;;8.70;99.90;;;;;;5104724;28;20084;-44
2022/11/24 08:49:21;;;;;;;12.77;3.67;;;8.70;99.90;;;;;;5109151;28;20027;-44
2022/11/24 08:51:47;;;;;;;11.55;4.10;;;8.70;99.90;;;;;;5109650;28;20070;-44
2022/11/24 08:54:17;;;;;;;14.55;4.47;;;8.70;99.90;;;;;;5102615;28;20168;-46
2022/11/24 08:56:43;;;;;;;20.38;4.28;;;8.60;99.90;;;;;;5005340;28;20387;-44
2022/11/24 08:59:11;;;;;;;12.32;4.32;;;8.60;99.90;;;;;;5006244;28;20033;-45
2022/11/24 09:01:37;;;;;;;14.85;4.68;;;8.60;99.90;;;;;;5006395;28;20033;-45
2022/11/24 09:04:05;;;;;;;18.60;5.60;;;8.50;99.90;;;;;;5006168;28;20026;-44
2022/11/24 09:06:31;;;;;;;14.65;4.10;;;8.50;99.90;;;;;;5006442;28;20108;-45
2022/11/24 09:08:58;;;;;;;14.93;5.28;;;8.50;99.90;;;;;;5004725;28;20171;-45
2022/11/24 09:11:25;;;;;;;15.73;3.58;;;8.50;99.90;;;;;;5004655;28;20527;-46
2022/11/24 09:13:53;;;;;;;14.25;4.20;;;8.50;99.90;;;;;;5004682;28;20409;-45
2022/11/24 09:16:21;;;;;;;19.00;4.15;;;8.60;99.90;;;;;;5005025;28;20587;-48
2022/11/24 09:18:47;;;;;;;16.30;4.68;;;8.50;99.90;;;;;;5005066;28;20030;-45
2022/11/24 09:21:18;;;;;;;16.73;4.70;;;8.60;99.90;;;;;;5005490;28;20360;-44
2022/11/24 09:23:45;;;;;;;10.27;4.13;;;8.60;99.90;;;;;;5004779;28;20470;-45
2022/11/24 09:26:14;;;;;;;19.17;6.30;;;8.60;99.90;;;;;;5005849;28;20527;-45
2022/11/24 09:28:40;;;;;;;17.83;3.75;;;8.60;99.90;;;;;;5005953;28;20026;-44
2022/11/24 09:31:08;;;;;;;15.32;4.13;;;8.60;99.90;;;;;;5005605;28;20105;-44
2022/11/24 09:33:35;;;;;;;15.50;4.50;;;8.60;99.90;;;;;;5005754;28;20038;-44
2022/11/24 09:36:01;;;;;;;18.75;5.10;;;8.60;99.90;;;;;;5004666;28;20113;-44
2022/11/24 09:38:27;;;;;;;20.58;4.90;;;8.60;99.90;;;;;;5005841;28;20033;-44
2022/11/24 09:40:53;;;;;;;19.45;4.40;;;8.60;99.90;;;;;;5004994;28;20562;-44
2022/11/24 09:43:35;;;;;;;16.83;4.15;;;8.60;99.90;;;;;;5003057;28;20022;-45
2022/11/24 09:46:13;;;;;;;26.80;5.65;;;8.60;99.90;;;;;;5006848;28;20018;-44
2022/11/24 09:48:42;;;;;;;12.98;4.38;;;8.60;99.90;;;;;;5008236;28;20040;-44
2022/11/24 09:51:13;;;;;;;18.85;5.00;;;8.70;99.90;;;;;;5009117;28;20482;-45
2022/11/24 09:53:53;;;;;;;12.30;3.80;;;8.70;99.90;;;;;;5009265;28;20029;-44
2022/11/24 09:56:24;;;;;;;19.58;4.60;;;8.90;99.90;;;;;;5009239;28;20087;-45
2022/11/24 09:59:04;;;;;;;31.90;5.63;;;8.90;99.90;;;;;;5009852;28;20800;-44
2022/11/24 10:01:33;;;;;;;15.52;4.20;;;8.90;99.90;;;;;;5009738;28;20061;-46
2022/11/24 10:04:00;;;;;;;27.17;5.32;;;9.00;99.90;;;;;;5008865;28;20025;-45
2022/11/24 10:06:47;;;;;;;16.17;4.30;;;8.90;99.90;;;;;;5009319;28;20026;-45
2022/11/24 10:09:23;;;;;;;34.10;6.30;;;9.00;99.90;;;;;;5007737;28;20558;-44
2022/11/24 10:12:03;;;;;;;19.75;4.60;;;9.00;99.90;;;;;;5007856;28;20561;-45
2022/11/24 10:14:47;;;;;;;16.33;5.15;;;9.10;99.90;;;;;;5009128;28;20021;-45
2022/11/24 10:17:36;;;;;;;12.93;4.53;;;9.20;99.90;;;;;;5009239;28;20030;-45
2022/11/24 10:20:21;;;;;;;12.00;4.00;;;9.30;99.90;;;;;;5008449;28;20026;-46
2022/11/24 10:23:00;;;;;;;19.77;3.97;;;9.40;99.90;;;;;;5008708;28;20407;-44
2022/11/24 10:25:39;;;;;;;14.18;4.95;;;9.70;99.90;;;;;;5009777;28;20030;-45
2022/11/24 10:28:11;;;;;;;15.70;4.47;;;10.30;99.90;;;;;;5008928;28;20033;-45
2022/11/24 10:30:36;;;;;;;13.32;3.80;;;10.70;99.90;;;;;;5008865;28;20669;-45
2022/11/24 10:33:17;;;;;;;14.45;3.75;;;11.10;99.90;;;;;;5008602;28;20038;-45
2022/11/24 10:35:48;;;;;;;12.88;3.80;;;12.80;99.90;;;;;;5008965;28;20109;-45
2022/11/24 10:38:20;;;;;;;12.98;3.53;;;13.70;99.90;;;;;;5008886;28;20103;-46
2022/11/24 10:40:50;;;;;;;14.98;4.15;;;13.70;99.90;;;;;;5008511;28;20026;-45
2022/11/24 10:43:16;;;;;;;13.10;3.70;;;13.70;99.90;;;;;;5003924;28;20018;-45
2022/11/24 10:45:41;;;;;;;17.55;3.80;;;13.00;99.90;;;;;;4997758;28;20164;-44
2022/11/24 10:48:18;;;;;;;17.98;4.85;;;12.70;99.90;;;;;;4996506;28;20529;-45
2022/11/24 10:50:44;;;;;;;12.85;3.42;;;12.30;99.90;;;;;;4996575;28;20395;-45
2022/11/24 10:53:30;;;;;;;19.98;6.32;;;12.10;99.90;;;;;;5008274;28;20026;-45
2022/11/24 10:55:55;;;;;;;14.98;4.10;;;11.90;99.90;;;;;;5008481;28;20030;-44
2022/11/24 10:58:33;;;;;;;11.68;3.20;;;11.70;99.90;;;;;;5007523;28;20475;-45
2022/11/24 11:01:17;;;;;;;10.55;3.78;;;11.80;99.90;;;;;;5007907;28;20460;-45
2022/11/24 11:03:47;;;;;;;15.13;3.97;;;11.90;99.90;;;;;;5013033;28;20038;-45
2022/11/24 11:06:25;;;;;;;15.35;4.22;;;11.80;99.90;;;;;;4991078;28;20026;-45
2022/11/24 11:09:06;;;;;;;8.25;3.40;;;11.90;99.90;;;;;;5004605;28;20025;-45
2022/11/24 11:11:33;;;;;;;15.52;4.20;;;11.90;99.90;;;;;;5007316;28;20068;-44
2022/11/24 11:14:07;;;;;;;15.05;3.83;;;11.90;99.90;;;;;;5007534;28;20384;-43
2022/11/24 11:16:38;;;;;;;11.90;3.60;;;11.90;99.90;;;;;;5001560;28;20049;-44
2022/11/24 11:19:24;;;;;;;9.43;3.10;;;11.70;99.90;;;;;;5002326;28;20029;-44
2022/11/24 11:22:12;;;;;;;10.27;3.83;;;11.60;99.90;;;;;;4998710;28;20030;-45
2022/11/24 11:24:39;;;;;;;15.85;3.35;;;11.30;99.90;;;;;;4997931;28;20335;-45
2022/11/24 11:27:20;;;;;;;16.63;3.67;;;11.30;99.90;;;;;;4995908;28;20026;-44
2022/11/24 11:29:46;;;;;;;15.82;3.90;;;11.00;99.90;;;;;;4997454;28;20064;-45
2022/11/24 11:32:24;;;;;;;15.50;3.30;;;10.90;99.90;;;;;;4996434;28;20113;-44
2022/11/24 11:34:53;;;;;;;21.73;3.45;;;10.80;99.90;;;;;;4996948;28;20013;-44
2022/11/24 11:37:20;;;;;;;11.77;3.20;;;10.80;99.90;;;;;;5003799;28;20022;-44
2022/11/24 11:39:51;;;;;;;14.85;3.60;;;10.60;99.90;;;;;;5007268;28;20071;-45
2022/11/24 11:42:31;;;;;;;11.13;3.47;;;10.60;99.90;;;;;;5007451;28;20076;-45
2022/11/24 11:45:09;;;;;;;;;;;10.50;99.90;;;;;;5008414;28;20108;-46
2022/11/24 11:47:40;;;;;;;17.90;3.13;;;10.50;99.90;;;;;;5007657;28;20331;-45
2022/11/24 11:50:16;;;;;;;;;;;10.50;99.90;;;;;;5001874;28;20030;-45
2022/11/24 11:53:09;;;;;;;10.57;3.10;;;10.60;99.90;;;;;;4996772;28;20195;-45
2022/11/24 11:55:56;;;;;;;14.90;5.32;;;10.70;99.90;;;;;;4990583;28;20026;-45
2022/11/24 11:58:34;;;;;;;19.40;4.00;;;11.00;99.90;;;;;;4986546;28;20383;-45
2022/11/24 12:01:05;;;;;;;13.82;3.67;;;11.50;99.90;;;;;;4987325;28;20406;-45
2022/11/24 12:03:30;;;;;;;12.20;3.28;;;11.70;99.90;;;;;;4987891;28;20056;-45
2022/11/24 12:06:33;;;;;;;13.55;2.97;;;11.80;99.90;;;;;;4996641;28;20018;-45
2022/11/24 12:09:40;;;;;;;17.85;4.20;;;11.60;99.90;;;;;;5006998;28;20018;-45
2022/11/24 12:12:25;;;;;;;18.27;4.07;;;11.40;99.90;;;;;;5005510;28;20037;-44
2022/11/24 12:15:20;;;;;;;18.02;4.43;;;11.10;99.90;;;;;;5006922;28;20717;-44
2022/11/24 12:18:03;;;;;;;9.98;3.30;;;11.00;99.90;;;;;;4989304;28;20112;-44
2022/11/24 12:20:48;;;;;;;14.95;4.18;;;10.80;99.90;;;;;;5006557;28;20022;-44
2022/11/24 12:23:38;;;;;;;11.02;3.80;;;10.80;99.90;;;;;;5006386;28;20014;-45
2022/11/24 12:26:29;;;;;;;15.23;4.50;;;10.80;99.90;;;;;;4996716;28;20138;-44
2022/11/24 12:29:24;;;;;;;14.32;3.30;;;10.80;99.90;;;;;;4992326;28;20034;-45
2022/11/24 12:32:01;;;;;;;13.48;3.80;;;10.70;99.90;;;;;;4994816;28;20483;-44
2022/11/24 12:34:29;;;;;;;17.02;4.47;;;10.70;99.90;;;;;;4997175;28;20071;-44
2022/11/24 12:37:00;;;;;;;14.32;3.40;;;10.80;99.90;;;;;;4995634;28;20031;-44
2022/11/24 12:39:34;;;;;;;15.23;4.50;;;10.80;99.90;;;;;;4995713;28;20026;-45
2022/11/24 12:42:12;;;;;;;11.98;4.03;;;10.80;99.90;;;;;;4990675;28;20087;-45
2022/11/24 12:45:13;;;;;;;21.88;5.35;;;10.80;99.90;;;;;;4995344;28;20030;-45
2022/11/24 12:47:49;;;;;;;16.98;4.32;;;10.80;99.90;;;;;;4995460;28;20023;-45
2022/11/24 12:50:18;;;;;;;13.32;3.38;;;10.80;99.90;;;;;;4995004;28;20722;-45
2022/11/24 12:52:52;;;;;;;16.95;4.03;;;10.80;99.90;;;;;;5002784;28;20443;-44
2022/11/24 12:55:21;;;;;;;16.10;3.33;;;10.90;99.90;;;;;;5005518;28;20034;-44
2022/11/24 12:57:58;;;;;;;12.27;3.40;;;10.90;99.90;;;;;;4996219;28;20087;-45